Time,TemperatureF,DewpointF,PressureIn,WindDirection,WindDirectionDegrees,WindSpeedMPH,WindSpeedGustMPH,Humidity,HourlyPrecipIn,Conditions,Clouds,dailyrainin,SoftwareType,DateUTC
2013-03-02 00:01:00,52.9,47.0,30.28,West,264,0.0,0.0,81,0.00,,,0.00,weatherlink.com 1.10,2013-03-02 08:01:00,
2013-03-02 00:16:00,52.3,47.0,30.28,West,264,0.0,0.0,82,0.00,,,0.00,weatherlink.com 1.10,2013-03-02 08:16:00,
2013-03-02 00:31:00,52.1,47.0,30.29,West,264,0.0,0.0,83,0.00,,,0.00,weatherlink.com 1.10,2013-03-02 08:31:00,
2013-03-02 00:47:00,51.4,47.0,30.28,West,264,0.0,0.0,85,0.00,,,0.00,weatherlink.com 1.10,2013-03-02 08:47:00,
2013-03-02 01:02:00,52.3,48.0,30.28,West,264,0.0,0.0,84,0.00,,,0.00,weatherlink.com 1.10,2013-03-02 09:02:00,
2013-03-02 01:17:00,51.8,47.0,30.27,West,264,0.0,0.0,82,0.00,,,0.00,weatherlink.com 1.10,2013-03-02 09:17:00,
2013-03-02 01:32:00,52.3,46.0,30.27,West,264,0.0,0.0,79,0.00,,,0.00,weatherlink.com 1.10,2013-03-02 09:32:00,
2013-03-02 01:47:00,51.6,45.0,30.27,West,264,0.0,0.0,79,0.00,,,0.00,weatherlink.com 1.10,2013-03-02 09:47:00,
2013-03-02 02:02:00,51.9,45.0,30.26,West,264,0.0,0.0,77,0.00,,,0.00,weatherlink.com 1.10,2013-03-02 10:02:00,
2013-03-02 02:17:00,51.1,45.0,30.26,West,264,0.0,0.0,80,0.00,,,0.00,weatherlink.com 1.10,2013-03-02 10:17:00,
2013-03-02 02:32:00,52.2,46.0,30.26,West,264,0.0,0.0,78,0.00,,,0.00,weatherlink.com 1.10,2013-03-02 10:32:00,
2013-03-02 02:47:00,51.7,44.0,30.25,West,264,0.0,0.0,75,0.00,,,0.00,weatherlink.com 1.10,2013-03-02 10:47:00,
2013-03-02 03:01:00,51.8,44.0,30.25,West,264,0.0,0.0,75,0.00,,,0.00,weatherlink.com 1.10,2013-03-02 11:01:00,
2013-03-02 03:16:00,51.5,44.0,30.23,West,264,0.0,0.0,75,0.00,,,0.00,weatherlink.com 1.10,2013-03-02 11:16:00,
2013-03-02 03:31:00,51.0,44.0,30.23,West,264,0.0,0.0,76,0.00,,,0.00,weatherlink.com 1.10,2013-03-02 11:31:00,
2013-03-02 03:46:00,50.7,44.0,30.23,West,264,0.0,0.0,78,0.00,,,0.00,weatherlink.com 1.10,2013-03-02 11:46:00,
2013-03-02 04:01:00,50.9,45.0,30.22,West,264,0.0,0.0,81,0.00,,,0.00,weatherlink.com 1.10,2013-03-02 12:01:00,
2013-03-02 04:16:00,52.4,46.0,30.23,West,264,0.0,0.0,79,0.00,,,0.00,weatherlink.com 1.10,2013-03-02 12:16:00,
2013-03-02 04:31:00,51.4,45.0,30.23,West,264,0.0,0.0,80,0.00,,,0.00,weatherlink.com 1.10,2013-03-02 12:31:00,
2013-03-02 04:46:00,50.7,46.0,30.23,West,264,0.0,0.0,84,0.00,,,0.00,weatherlink.com 1.10,2013-03-02 12:46:00,
2013-03-02 05:01:00,51.3,46.0,30.23,West,264,0.0,0.0,83,0.00,,,0.00,weatherlink.com 1.10,2013-03-02 13:01:00,
2013-03-02 05:16:00,50.8,46.0,30.23,West,264,0.0,0.0,84,0.00,,,0.00,weatherlink.com 1.10,2013-03-02 13:16:00,
2013-03-02 05:31:00,50.9,46.0,30.23,West,264,0.0,0.0,83,0.00,,,0.00,weatherlink.com 1.10,2013-03-02 13:31:00,
2013-03-02 05:46:00,50.9,45.0,30.23,West,264,0.0,0.0,81,0.00,,,0.00,weatherlink.com 1.10,2013-03-02 13:46:00,
2013-03-02 06:01:00,51.1,44.0,30.23,West,264,0.0,0.0,77,0.00,,,0.00,weatherlink.com 1.10,2013-03-02 14:01:00,
2013-03-02 06:16:00,51.3,44.0,30.22,West,264,0.0,0.0,75,0.00,,,0.00,weatherlink.com 1.10,2013-03-02 14:16:00,
2013-03-02 06:31:00,50.9,43.0,30.22,West,264,0.0,0.0,75,0.00,,,0.00,weatherlink.com 1.10,2013-03-02 14:31:00,
2013-03-02 06:46:00,50.7,42.0,30.23,West,264,0.0,0.0,73,0.00,,,0.00,weatherlink.com 1.10,2013-03-02 14:46:00,
2013-03-02 07:01:00,50.1,43.0,30.23,West,264,0.0,0.0,77,0.00,,,0.00,weatherlink.com 1.10,2013-03-02 15:01:00,
2013-03-02 07:16:00,51.4,43.0,30.23,West,264,0.0,0.0,73,0.00,,,0.00,weatherlink.com 1.10,2013-03-02 15:16:00,
2013-03-02 07:31:00,52.0,44.0,30.23,West,264,0.0,0.0,73,0.00,,,0.00,weatherlink.com 1.10,2013-03-02 15:31:00,
2013-03-02 07:46:00,51.8,43.0,30.23,West,264,0.0,0.0,73,0.00,,,0.00,weatherlink.com 1.10,2013-03-02 15:46:00,
2013-03-02 08:01:00,52.7,44.0,30.24,West,264,0.0,0.0,73,0.00,,,0.00,weatherlink.com 1.10,2013-03-02 16:01:00,
2013-03-02 08:16:00,53.9,46.0,30.23,West,264,0.0,0.0,75,0.00,,,0.00,weatherlink.com 1.10,2013-03-02 16:16:00,
2013-03-02 08:31:00,56.1,45.0,30.23,West,264,0.0,0.0,67,0.00,,,0.00,weatherlink.com 1.10,2013-03-02 16:31:00,
2013-03-02 08:46:00,57.9,45.0,30.23,ESE,114,0.0,0.0,63,0.00,,,0.00,weatherlink.com 1.10,2013-03-02 16:46:00,
2013-03-02 09:02:00,59.1,45.0,30.23,East,98,0.0,0.0,61,0.00,,,0.00,weatherlink.com 1.10,2013-03-02 17:02:00,
2013-03-02 09:17:00,61.1,45.0,30.23,NNW,341,0.0,2.0,56,0.00,,,0.00,weatherlink.com 1.10,2013-03-02 17:17:00,
2013-03-02 09:32:00,61.6,44.0,30.23,East,86,1.0,3.0,52,0.00,,,0.00,weatherlink.com 1.10,2013-03-02 17:32:00,
2013-03-02 09:47:00,61.3,45.0,30.23,NW,308,0.0,3.0,56,0.00,,,0.00,weatherlink.com 1.10,2013-03-02 17:47:00,
2013-03-02 10:02:00,61.4,45.0,30.24,ESE,104,0.0,2.0,56,0.00,,,0.00,weatherlink.com 1.10,2013-03-02 18:02:00,
2013-03-02 10:17:00,62.9,45.0,30.22,ESE,107,1.0,2.0,52,0.00,,,0.00,weatherlink.com 1.10,2013-03-02 18:17:00,
2013-03-02 10:32:00,61.4,46.0,30.23,WNW,298,1.0,4.0,58,0.00,,,0.00,weatherlink.com 1.10,2013-03-02 18:32:00,
2013-03-02 10:47:00,61.8,46.0,30.23,East,100,1.0,4.0,56,0.00,,,0.00,weatherlink.com 1.10,2013-03-02 18:47:00,
2013-03-02 11:02:00,62.5,45.0,30.22,ESE,123,0.0,4.0,53,0.00,,,0.00,weatherlink.com 1.10,2013-03-02 19:02:00,
2013-03-02 11:17:00,64.7,45.0,30.21,SSE,152,2.0,5.0,49,0.00,,,0.00,weatherlink.com 1.10,2013-03-02 19:17:00,
2013-03-02 11:32:00,66.9,46.0,30.20,ENE,78,2.0,5.0,48,0.00,,,0.00,weatherlink.com 1.10,2013-03-02 19:32:00,
2013-03-02 11:47:00,68.0,46.0,30.20,ESE,107,2.0,3.0,46,0.00,,,0.00,weatherlink.com 1.10,2013-03-02 19:47:00,
2013-03-02 12:02:00,67.6,47.0,30.19,North,350,2.0,5.0,47,0.00,,,0.00,weatherlink.com 1.10,2013-03-02 20:02:00,
2013-03-02 12:17:00,67.9,47.0,30.19,East,94,1.0,3.0,47,0.00,,,0.00,weatherlink.com 1.10,2013-03-02 20:17:00,
2013-03-02 12:32:00,67.1,47.0,30.19,East,98,1.0,3.0,48,0.00,,,0.00,weatherlink.com 1.10,2013-03-02 20:32:00,
2013-03-02 12:47:00,67.5,47.0,30.16,WNW,298,0.0,4.0,48,0.00,,,0.00,weatherlink.com 1.10,2013-03-02 20:47:00,
2013-03-02 13:02:00,66.7,47.0,30.17,NNW,347,0.0,3.0,49,0.00,,,0.00,weatherlink.com 1.10,2013-03-02 21:02:00,
2013-03-02 13:17:00,67.0,46.0,30.16,ENE,60,1.0,3.0,48,0.00,,,0.00,weatherlink.com 1.10,2013-03-02 21:17:00,
2013-03-02 13:32:00,66.6,48.0,30.15,East,90,2.0,4.0,51,0.00,,,0.00,weatherlink.com 1.10,2013-03-02 21:32:00,
2013-03-02 13:47:00,67.2,49.0,30.15,ENE,65,2.0,3.0,52,0.00,,,0.00,weatherlink.com 1.10,2013-03-02 21:47:00,
2013-03-02 14:02:00,66.9,47.0,30.15,SSE,150,0.0,3.0,49,0.00,,,0.00,weatherlink.com 1.10,2013-03-02 22:02:00,
2013-03-02 14:18:00,67.0,48.0,30.15,NNW,333,3.0,4.0,50,0.00,,,0.00,weatherlink.com 1.10,2013-03-02 22:18:00,
2013-03-02 14:32:00,66.3,47.0,30.14,East,92,0.0,2.0,51,0.00,,,0.00,weatherlink.com 1.10,2013-03-02 22:32:00,
2013-03-02 14:47:00,65.5,47.0,30.12,ESE,115,0.0,3.0,52,0.00,,,0.00,weatherlink.com 1.10,2013-03-02 22:47:00,
2013-03-02 15:02:00,65.2,47.0,30.12,SE,142,1.0,3.0,53,0.00,,,0.00,weatherlink.com 1.10,2013-03-02 23:02:00,
2013-03-02 15:17:00,65.3,47.0,30.12,ESE,110,0.0,2.0,52,0.00,,,0.00,weatherlink.com 1.10,2013-03-02 23:17:00,
2013-03-02 15:32:00,65.7,47.0,30.12,ENE,71,1.0,2.0,52,0.00,,,0.00,weatherlink.com 1.10,2013-03-02 23:32:00,
2013-03-02 15:47:00,65.4,48.0,30.11,ESE,102,1.0,2.0,54,0.00,,,0.00,weatherlink.com 1.10,2013-03-02 23:47:00,
2013-03-02 16:02:00,64.8,49.0,30.11,ESE,120,1.0,4.0,56,0.00,,,0.00,weatherlink.com 1.10,2013-03-03 00:02:00,
2013-03-02 16:17:00,64.4,48.0,30.11,SSE,148,0.0,3.0,56,0.00,,,0.00,weatherlink.com 1.10,2013-03-03 00:17:00,
2013-03-02 16:32:00,64.2,49.0,30.11,SE,142,0.0,2.0,58,0.00,,,0.00,weatherlink.com 1.10,2013-03-03 00:32:00,
2013-03-02 16:47:00,63.8,48.0,30.11,SE,125,2.0,3.0,57,0.00,,,0.00,weatherlink.com 1.10,2013-03-03 00:47:00,
2013-03-02 17:02:00,63.6,49.0,30.10,ENE,59,0.0,2.0,59,0.00,,,0.00,weatherlink.com 1.10,2013-03-03 01:02:00,
2013-03-02 17:18:00,62.8,50.0,30.09,ENE,59,0.0,0.0,63,0.00,,,0.00,weatherlink.com 1.10,2013-03-03 01:18:00,
2013-03-02 17:33:00,61.6,50.0,30.09,ENE,59,0.0,0.0,66,0.00,,,0.00,weatherlink.com 1.10,2013-03-03 01:33:00,
2013-03-02 17:48:00,60.4,50.0,30.10,ENE,59,0.0,0.0,68,0.00,,,0.00,weatherlink.com 1.10,2013-03-03 01:48:00,
2013-03-02 18:03:00,59.4,50.0,30.10,SSE,148,0.0,0.0,70,0.00,,,0.00,weatherlink.com 1.10,2013-03-03 02:03:00,
2013-03-02 18:18:00,59.2,49.0,30.10,SSE,148,0.0,0.0,70,0.00,,,0.00,weatherlink.com 1.10,2013-03-03 02:18:00,
2013-03-02 18:33:00,58.5,49.0,30.10,SSE,157,0.0,0.0,71,0.00,,,0.00,weatherlink.com 1.10,2013-03-03 02:33:00,
2013-03-02 18:48:00,57.6,49.0,30.09,SSE,157,0.0,0.0,72,0.00,,,0.00,weatherlink.com 1.10,2013-03-03 02:48:00,
2013-03-02 19:03:00,57.4,49.0,30.10,SSE,157,0.0,0.0,74,0.00,,,0.00,weatherlink.com 1.10,2013-03-03 03:03:00,
2013-03-02 19:18:00,56.7,49.0,30.10,SSE,157,0.0,0.0,75,0.00,,,0.00,weatherlink.com 1.10,2013-03-03 03:18:00,
2013-03-02 19:33:00,56.3,49.0,30.09,SSE,157,0.0,0.0,76,0.00,,,0.00,weatherlink.com 1.10,2013-03-03 03:33:00,
2013-03-02 19:48:00,56.0,49.0,30.09,SSW,207,0.0,0.0,76,0.00,,,0.00,weatherlink.com 1.10,2013-03-03 03:48:00,
2013-03-02 20:03:00,55.8,48.0,30.09,SSW,207,0.0,0.0,76,0.00,,,0.00,weatherlink.com 1.10,2013-03-03 04:03:00,
2013-03-02 20:18:00,55.4,48.0,30.10,SSW,207,0.0,0.0,77,0.00,,,0.00,weatherlink.com 1.10,2013-03-03 04:18:00,
2013-03-02 20:33:00,55.3,48.0,30.09,SSW,207,0.0,0.0,76,0.00,,,0.00,weatherlink.com 1.10,2013-03-03 04:33:00,
2013-03-02 20:49:00,55.1,48.0,30.10,SSW,207,0.0,0.0,76,0.00,,,0.00,weatherlink.com 1.10,2013-03-03 04:49:00,
2013-03-02 21:03:00,55.0,48.0,30.11,SSW,207,0.0,0.0,76,0.00,,,0.00,weatherlink.com 1.10,2013-03-03 05:03:00,
2013-03-02 21:18:00,54.6,46.0,30.11,SSW,207,0.0,0.0,74,0.00,,,0.00,weatherlink.com 1.10,2013-03-03 05:18:00,
2013-03-02 21:33:00,54.3,46.0,30.11,SSW,207,0.0,0.0,73,0.00,,,0.00,weatherlink.com 1.10,2013-03-03 05:33:00,
2013-03-02 21:48:00,54.2,46.0,30.11,SSW,207,0.0,0.0,73,0.00,,,0.00,weatherlink.com 1.10,2013-03-03 05:48:00,
2013-03-02 22:03:00,53.9,46.0,30.11,SSW,207,0.0,0.0,74,0.00,,,0.00,weatherlink.com 1.10,2013-03-03 06:03:00,
2013-03-02 22:18:00,53.6,46.0,30.10,SSW,207,0.0,0.0,74,0.00,,,0.00,weatherlink.com 1.10,2013-03-03 06:18:00,
2013-03-02 22:33:00,53.3,46.0,30.10,SSW,207,0.0,0.0,75,0.00,,,0.00,weatherlink.com 1.10,2013-03-03 06:33:00,
2013-03-02 22:48:00,52.7,45.0,30.10,SSW,207,0.0,0.0,76,0.00,,,0.00,weatherlink.com 1.10,2013-03-03 06:48:00,
2013-03-02 23:03:00,52.3,45.0,30.10,SSW,207,0.0,0.0,75,0.00,,,0.00,weatherlink.com 1.10,2013-03-03 07:03:00,
2013-03-02 23:18:00,52.3,44.0,30.10,SSW,207,0.0,0.0,74,0.00,,,0.00,weatherlink.com 1.10,2013-03-03 07:18:00,
2013-03-02 23:33:00,53.0,44.0,30.09,SSW,207,0.0,0.0,71,0.00,,,0.00,weatherlink.com 1.10,2013-03-03 07:33:00,
2013-03-02 23:48:00,53.4,44.0,30.09,WSW,238,0.0,0.0,71,0.00,,,0.00,weatherlink.com 1.10,2013-03-03 07:48:00,